createdAt,value
2022-09-23T00:00:17.638Z,3.65
2022-09-23T00:02:48.879Z,3.30
2022-09-23T00:05:16.201Z,3.60
2022-09-23T00:07:43.308Z,3.13
2022-09-23T00:10:10.424Z,3.40
2022-09-23T00:12:37.601Z,3.55
2022-09-23T00:15:04.944Z,3.15
2022-09-23T00:17:32.253Z,3.20
2022-09-23T00:20:00.343Z,3.08
2022-09-23T00:22:27.393Z,3.60
2022-09-23T00:24:54.599Z,3.17
2022-09-23T00:27:21.728Z,3.40
2022-09-23T00:29:49.237Z,3.13
2022-09-23T00:32:16.343Z,2.97
2022-09-23T00:34:44.950Z,3.33
2022-09-23T00:37:12.030Z,3.70
2022-09-23T00:39:39.147Z,3.60
2022-09-23T00:42:06.777Z,3.90
2022-09-23T00:44:48.043Z,4.60
2022-09-23T00:47:34.641Z,5.13
2022-09-23T00:50:04.555Z,5.18
2022-09-23T00:52:32.246Z,5.00
2022-09-23T00:55:00.909Z,5.05
2022-09-23T00:57:28.639Z,5.10
2022-09-23T00:59:55.721Z,4.80
2022-09-23T01:02:22.931Z,4.82
2022-09-23T01:04:51.075Z,6.63
2022-09-23T01:07:18.601Z,5.60
2022-09-23T01:09:46.282Z,4.97
2022-09-23T01:12:19.999Z,4.00
2022-09-23T01:14:56.552Z,4.07
2022-09-23T01:17:33.351Z,4.47
2022-09-23T01:20:00.392Z,3.53
2022-09-23T01:22:36.021Z,3.30
2022-09-23T01:25:21.678Z,3.58
2022-09-23T01:28:07.219Z,3.53
2022-09-23T01:30:34.355Z,3.40
2022-09-23T01:33:14.134Z,3.40
2022-09-23T01:35:44.358Z,3.78
2022-09-23T01:38:46.900Z,3.30
2022-09-23T01:41:32.601Z,3.20
2022-09-23T01:44:08.759Z,3.05
2022-09-23T01:46:36.578Z,3.20
2022-09-23T01:49:08.377Z,3.30
2022-09-23T01:51:38.260Z,3.92
2022-09-23T01:54:10.475Z,3.70
2022-09-23T01:56:43.819Z,3.00
2022-09-23T01:59:18.236Z,3.35
2022-09-23T02:01:50.567Z,3.53
2022-09-23T02:04:22.309Z,3.25
2022-09-23T02:06:52.807Z,3.17
2022-09-23T02:09:24.900Z,3.22
2022-09-23T02:11:53.189Z,3.35
2022-09-23T02:14:22.517Z,3.20
2022-09-23T02:16:52.144Z,3.20
2022-09-23T02:19:54.970Z,3.28
2022-09-23T02:22:25.091Z,3.33
2022-09-23T02:24:54.670Z,3.22
2022-09-23T02:27:42.043Z,3.05
2022-09-23T02:30:14.733Z,3.80
2022-09-23T02:35:22.588Z,3.47
2022-09-23T02:37:57.258Z,3.25
2022-09-23T02:40:25.075Z,3.53
2022-09-23T02:43:10.908Z,3.30
2022-09-23T02:45:39.192Z,3.30
2022-09-23T02:48:08.498Z,3.13
2022-09-23T02:50:36.115Z,3.78
2022-09-23T02:53:03.225Z,3.47
2022-09-23T02:55:32.270Z,3.40
2022-09-23T02:58:03.490Z,3.53
2022-09-23T03:00:35.879Z,3.35
2022-09-23T03:03:19.051Z,3.72
2022-09-23T03:05:50.979Z,3.40
2022-09-23T03:08:36.690Z,3.10
2022-09-23T03:11:07.086Z,4.10
2022-09-23T03:13:51.207Z,3.70
2022-09-23T03:16:37.205Z,4.10
2022-09-23T03:19:17.758Z,4.90
2022-09-23T03:21:50.023Z,5.10
2022-09-23T03:24:18.154Z,4.38
2022-09-23T03:26:47.833Z,4.40
2022-09-23T03:29:15.734Z,4.57
2022-09-23T03:31:43.059Z,4.00
2022-09-23T03:34:13.849Z,4.13
2022-09-23T03:36:51.447Z,4.03
2022-09-23T03:39:24.755Z,3.50
2022-09-23T03:41:53.069Z,3.58
2022-09-23T03:44:21.547Z,3.55
2022-09-23T03:46:51.614Z,4.10
2022-09-23T03:49:22.539Z,3.90
2022-09-23T03:51:49.592Z,4.15
2022-09-23T03:54:17.618Z,4.20
2022-09-23T03:56:44.669Z,4.20
2022-09-23T03:59:11.946Z,4.63
2022-09-23T04:01:39.027Z,4.60
2022-09-23T04:04:06.251Z,4.50
2022-09-23T04:06:33.385Z,4.05
2022-09-23T04:09:01.680Z,5.22
2022-09-23T04:11:29.464Z,5.95
2022-09-23T04:13:56.985Z,7.88
2022-09-23T04:16:24.546Z,6.93
2022-09-23T04:18:51.659Z,6.95
2022-09-23T04:21:18.750Z,7.70
2022-09-23T04:23:48.511Z,8.57
2022-09-23T04:26:15.871Z,5.88
2022-09-23T04:28:42.946Z,6.40
2022-09-23T04:31:10.124Z,6.55
2022-09-23T04:33:37.901Z,5.68
2022-09-23T04:36:05.139Z,5.63
2022-09-23T04:38:32.227Z,5.20
2022-09-23T04:40:59.318Z,5.10
2022-09-23T04:43:26.406Z,5.47
2022-09-23T04:46:00.752Z,4.93
2022-09-23T04:48:28.370Z,5.07
2022-09-23T04:50:55.863Z,5.13
2022-09-23T04:53:22.969Z,4.55
2022-09-23T04:55:52.274Z,5.57
2022-09-23T04:58:20.506Z,8.02
2022-09-23T05:00:47.558Z,9.57
2022-09-23T05:03:15.083Z,10.75
2022-09-23T05:05:42.190Z,11.07
2022-09-23T05:08:09.335Z,8.77
2022-09-23T05:10:36.420Z,8.20
2022-09-23T05:13:03.482Z,7.22
2022-09-23T05:15:30.566Z,6.70
2022-09-23T05:17:59.089Z,6.43
2022-09-23T05:20:26.366Z,6.38
2022-09-23T05:22:56.087Z,7.53
2022-09-23T05:25:23.811Z,7.43
2022-09-23T05:27:50.906Z,8.02
2022-09-23T05:30:20.846Z,5.82
2022-09-23T05:32:47.887Z,6.82
2022-09-23T05:35:15.010Z,6.03
2022-09-23T05:37:42.099Z,5.18
2022-09-23T05:40:09.436Z,4.63
2022-09-23T05:42:36.726Z,3.90
2022-09-23T05:45:03.951Z,4.50
2022-09-23T05:47:31.056Z,4.22
2022-09-23T05:50:00.469Z,3.88
2022-09-23T05:52:28.096Z,3.70
2022-09-23T05:54:55.269Z,4.10
2022-09-23T05:57:22.411Z,3.58
2022-09-23T05:59:49.462Z,3.05
2022-09-23T06:02:16.595Z,3.20
2022-09-23T06:04:43.970Z,3.55
2022-09-23T06:07:11.221Z,3.72
2022-09-23T06:09:38.437Z,3.50
2022-09-23T06:12:06.352Z,4.32
2022-09-23T06:14:33.439Z,4.20
2022-09-23T06:17:00.599Z,5.40
2022-09-23T06:19:27.799Z,5.50
2022-09-23T06:21:54.876Z,4.00
2022-09-23T06:24:25.992Z,3.53
2022-09-23T06:26:55.789Z,3.60
2022-09-23T06:29:22.886Z,3.72
2022-09-23T06:31:50.314Z,3.05
2022-09-23T06:34:17.554Z,3.50
2022-09-23T06:36:46.149Z,3.15
2022-09-23T06:39:14.514Z,3.40
2022-09-23T06:41:41.624Z,2.92
2022-09-23T06:44:08.811Z,3.10
2022-09-23T06:46:36.795Z,3.50
2022-09-23T06:49:04.105Z,3.50
2022-09-23T06:51:31.225Z,3.50
2022-09-23T06:53:58.295Z,3.20
2022-09-23T06:56:25.454Z,3.10
2022-09-23T06:58:52.984Z,2.72
2022-09-23T07:01:20.331Z,3.03
2022-09-23T07:03:48.450Z,2.63
2022-09-23T07:06:15.913Z,2.50
2022-09-23T07:08:47.382Z,2.30
2022-09-23T07:11:15.310Z,2.10
2022-09-23T07:13:42.649Z,2.15
2022-09-23T07:16:10.140Z,2.50
2022-09-23T07:18:37.646Z,2.40
2022-09-23T07:21:15.316Z,2.30
2022-09-23T07:23:43.200Z,2.78
2022-09-23T07:26:10.349Z,2.40
2022-09-23T07:28:38.263Z,2.90
2022-09-23T07:31:10.393Z,2.35
2022-09-23T07:33:38.719Z,2.10
2022-09-23T07:36:10.082Z,2.00
2022-09-23T07:38:40.408Z,1.80
2022-09-23T07:41:11.297Z,2.10
2022-09-23T07:43:40.767Z,2.03
2022-09-23T07:46:09.772Z,1.98
2022-09-23T07:48:37.441Z,2.20
2022-09-23T07:51:08.562Z,2.05
2022-09-23T07:53:36.010Z,2.15
2022-09-23T07:56:06.461Z,2.00
2022-09-23T07:58:34.436Z,2.15
2022-09-23T08:01:05.738Z,1.90
2022-09-23T08:03:33.170Z,1.98
2022-09-23T08:06:04.467Z,2.13
2022-09-23T08:08:31.935Z,2.00
2022-09-23T08:11:02.883Z,1.95
2022-09-23T08:13:30.851Z,1.88
2022-09-23T08:15:58.333Z,2.00
2022-09-23T08:18:25.978Z,2.70
2022-09-23T08:20:54.203Z,2.05
2022-09-23T08:23:21.605Z,2.00
2022-09-23T08:25:48.845Z,1.90
2022-09-23T08:28:18.437Z,1.92
2022-09-23T08:30:48.694Z,1.85
2022-09-23T08:33:19.658Z,2.08
2022-09-23T08:35:49.786Z,1.85
2022-09-23T08:38:16.908Z,1.90
2022-09-23T08:40:45.081Z,1.60
2022-09-23T08:43:19.169Z,1.92
2022-09-23T08:45:47.070Z,2.03
2022-09-23T08:48:18.027Z,1.60
2022-09-23T08:50:54.322Z,2.10
2022-09-23T08:53:26.237Z,1.98
2022-09-23T08:55:54.886Z,2.00
2022-09-23T08:58:27.707Z,1.80
2022-09-23T09:01:14.028Z,2.03
2022-09-23T09:03:51.823Z,1.83
2022-09-23T09:06:30.997Z,1.63
2022-09-23T09:09:00.941Z,1.88
2022-09-23T09:11:32.558Z,1.60
2022-09-23T09:14:17.814Z,1.42
2022-09-23T09:17:00.329Z,1.55
2022-09-23T09:19:52.512Z,1.63
2022-09-23T09:22:28.823Z,1.58
2022-09-23T09:24:57.262Z,1.55
2022-09-23T09:27:24.784Z,1.52
2022-09-23T09:29:55.437Z,1.42
2022-09-23T09:32:46.164Z,1.50
2022-09-23T09:35:39.517Z,1.30
2022-09-23T09:38:06.737Z,1.13
2022-09-23T09:40:35.055Z,1.40
2022-09-23T09:43:05.681Z,1.60
2022-09-23T09:45:41.942Z,1.45
2022-09-23T09:48:50.665Z,1.58
2022-09-23T09:51:19.602Z,1.55
2022-09-23T09:53:46.776Z,1.50
2022-09-23T09:56:16.184Z,1.58
2022-09-23T09:58:56.709Z,1.58
2022-09-23T10:01:31.832Z,1.23
2022-09-23T10:04:01.231Z,1.50
2022-09-23T10:06:29.524Z,1.77
2022-09-23T10:09:02.525Z,1.33
2022-09-23T10:11:30.153Z,1.20
2022-09-23T10:14:00.617Z,1.30
2022-09-23T10:16:31.878Z,1.23
2022-09-23T10:19:00.430Z,1.65
2022-09-23T10:21:34.355Z,1.27
2022-09-23T10:24:02.983Z,1.17
2022-09-23T10:26:43.765Z,1.25
2022-09-23T10:29:23.366Z,1.30
2022-09-23T10:31:53.722Z,1.30
2022-09-23T10:34:28.412Z,1.33
2022-09-23T10:37:13.746Z,1.40
2022-09-23T10:39:59.734Z,1.23
2022-09-23T10:43:08.416Z,1.30
2022-09-23T10:45:57.581Z,1.42
2022-09-23T10:48:35.987Z,1.58
2022-09-23T10:51:06.442Z,1.40
2022-09-23T10:53:52.230Z,1.70
2022-09-23T10:56:25.304Z,1.40
2022-09-23T10:59:30.895Z,1.75
2022-09-23T11:01:59.077Z,1.77
2022-09-23T11:04:32.328Z,1.38
2022-09-23T11:07:02.254Z,1.48
2022-09-23T11:09:47.025Z,1.70
2022-09-23T11:12:21.998Z,1.90
2022-09-23T11:15:00.228Z,1.70
2022-09-23T11:17:53.748Z,1.65
2022-09-23T11:20:25.955Z,1.50
2022-09-23T11:23:11.982Z,1.45
2022-09-23T11:25:50.970Z,1.90
2022-09-23T11:28:18.128Z,1.60
2022-09-23T11:30:48.099Z,1.92
2022-09-23T11:33:34.045Z,1.70
2022-09-23T11:36:05.294Z,1.65
2022-09-23T11:38:35.267Z,1.95
2022-09-23T11:41:04.690Z,2.30
2022-09-23T11:43:36.268Z,2.08
2022-09-23T11:46:05.952Z,1.90
2022-09-23T11:48:36.915Z,1.80
2022-09-23T11:51:07.387Z,2.30
2022-09-23T11:53:40.207Z,2.47
2022-09-23T11:56:07.368Z,2.17
2022-09-23T11:58:51.297Z,2.20
2022-09-23T12:01:37.695Z,1.75
2022-09-23T12:04:19.999Z,1.90
2022-09-23T12:09:31.005Z,1.80
2022-09-23T12:12:27.216Z,2.10
2022-09-23T12:14:57.663Z,2.20
2022-09-23T12:17:42.795Z,2.20
2022-09-23T12:20:17.105Z,2.75
2022-09-23T12:22:50.259Z,2.50
2022-09-23T12:25:35.940Z,2.65
2022-09-23T12:28:11.416Z,2.28
2022-09-23T12:30:38.904Z,2.67
2022-09-23T12:33:11.733Z,2.45
2022-09-23T12:38:13.095Z,2.30
2022-09-23T12:40:44.618Z,2.40
2022-09-23T12:43:29.751Z,2.53
2022-09-23T12:46:17.212Z,2.58
2022-09-23T12:48:45.952Z,2.72
2022-09-23T12:51:12.999Z,2.30
2022-09-23T12:53:40.102Z,2.40
2022-09-23T12:56:18.178Z,2.70
2022-09-23T12:58:45.212Z,2.55
2022-09-23T13:01:15.113Z,2.38
2022-09-23T13:04:05.078Z,2.42
2022-09-23T13:06:39.883Z,2.90
2022-09-23T13:09:19.863Z,2.50
2022-09-23T13:11:48.066Z,2.33
2022-09-23T13:14:17.724Z,2.65
2022-09-23T13:16:45.958Z,2.22
2022-09-23T13:19:28.839Z,2.47
2022-09-23T13:21:58.974Z,2.40
2022-09-23T13:24:28.865Z,2.80
2022-09-23T13:26:56.448Z,2.50
2022-09-23T13:29:33.264Z,2.45
2022-09-23T13:32:02.764Z,2.45
2022-09-23T13:34:32.819Z,2.50
2022-09-23T13:37:11.747Z,2.22
2022-09-23T13:39:39.024Z,1.98
2022-09-23T13:42:07.633Z,1.92
2022-09-23T13:44:35.967Z,2.55
2022-09-23T13:47:03.419Z,2.22
2022-09-23T13:49:33.997Z,2.30
2022-09-23T13:52:01.906Z,2.22
2022-09-23T13:54:31.044Z,2.20
2022-09-23T13:56:58.463Z,2.75
2022-09-23T13:59:25.798Z,2.40
2022-09-23T14:02:06.055Z,2.85
2022-09-23T14:04:33.177Z,2.70
2022-09-23T14:07:00.319Z,2.50
2022-09-23T14:09:28.911Z,2.67
2022-09-23T14:11:57.339Z,2.72
2022-09-23T14:14:24.896Z,3.00
2022-09-23T14:16:52.575Z,3.10
2022-09-23T14:19:21.432Z,2.67
2022-09-23T14:21:49.815Z,2.83
2022-09-23T14:24:24.545Z,2.90
2022-09-23T14:27:02.288Z,3.22
2022-09-23T14:29:31.662Z,2.88
2022-09-23T14:32:04.452Z,2.78
2022-09-23T14:34:58.179Z,3.08
2022-09-23T14:37:49.766Z,3.22
2022-09-23T14:40:20.168Z,3.00
2022-09-23T14:42:49.011Z,2.83
2022-09-23T14:45:17.978Z,3.53
2022-09-23T14:47:52.757Z,2.80
2022-09-23T14:50:37.126Z,2.70
2022-09-23T14:53:05.123Z,3.00
2022-09-23T14:55:32.279Z,2.47
2022-09-23T14:58:03.439Z,2.75
2022-09-23T15:00:31.507Z,3.22
2022-09-23T15:03:02.534Z,2.80
2022-09-23T15:05:40.132Z,2.92
2022-09-23T15:08:07.349Z,3.00
2022-09-23T15:10:37.490Z,2.90
2022-09-23T15:13:16.162Z,3.10
2022-09-23T15:15:43.773Z,3.47
2022-09-23T15:18:22.711Z,2.80
2022-09-23T15:20:52.267Z,2.78
2022-09-23T15:23:38.072Z,2.55
2022-09-23T15:26:17.538Z,2.90
2022-09-23T15:28:45.780Z,2.83
2022-09-23T15:31:14.993Z,3.10
2022-09-23T15:33:42.640Z,2.83
2022-09-23T15:36:16.012Z,4.10
2022-09-23T15:38:43.726Z,3.13
2022-09-23T15:41:11.070Z,4.03
2022-09-23T15:43:40.361Z,4.60
2022-09-23T15:46:08.844Z,4.13
2022-09-23T15:48:44.025Z,3.00
2022-09-23T15:51:13.054Z,2.78
2022-09-23T15:53:40.118Z,2.80
2022-09-23T15:56:07.439Z,2.95
2022-09-23T15:58:34.564Z,2.72
2022-09-23T16:01:01.782Z,3.05
2022-09-23T16:03:29.127Z,2.95
2022-09-23T16:05:58.076Z,3.10
2022-09-23T16:08:25.747Z,2.95
2022-09-23T16:10:53.312Z,2.60
2022-09-23T16:13:20.483Z,3.05
2022-09-23T16:15:47.554Z,10.80
2022-09-23T16:18:14.700Z,3.90
2022-09-23T16:20:44.460Z,5.15
2022-09-23T16:23:34.495Z,4.03
2022-09-23T16:26:28.222Z,4.68
2022-09-23T16:28:56.381Z,3.38
2022-09-23T16:31:29.650Z,4.38
2022-09-23T16:33:56.918Z,4.25
2022-09-23T16:36:24.010Z,4.07
2022-09-23T16:38:51.143Z,5.00
2022-09-23T16:41:18.255Z,5.05
2022-09-23T16:43:45.387Z,5.65
2022-09-23T16:46:13.512Z,5.65
2022-09-23T16:48:41.010Z,4.88
2022-09-23T16:51:09.188Z,4.20
2022-09-23T16:53:37.578Z,3.70
2022-09-23T16:56:07.667Z,3.95
2022-09-23T16:58:34.734Z,4.45
2022-09-23T17:01:20.837Z,4.10
2022-09-23T17:03:47.991Z,4.28
2022-09-23T17:06:16.097Z,5.63
2022-09-23T17:08:43.445Z,4.88
2022-09-23T17:11:14.316Z,4.10
2022-09-23T17:13:42.302Z,4.45
2022-09-23T17:16:11.443Z,6.88
2022-09-23T17:18:41.671Z,5.85
2022-09-23T17:21:09.189Z,5.85
2022-09-23T17:23:37.044Z,6.82
2022-09-23T17:26:12.403Z,7.75
2022-09-23T17:28:39.616Z,11.30
2022-09-23T17:31:07.478Z,7.50
2022-09-23T17:33:38.125Z,8.23
2022-09-23T17:36:09.453Z,6.00
2022-09-23T17:38:39.056Z,5.22
2022-09-23T17:41:07.007Z,6.18
2022-09-23T17:43:34.129Z,7.15
2022-09-23T17:46:06.511Z,5.55
2022-09-23T17:48:37.941Z,6.20
2022-09-23T17:51:05.131Z,6.50
2022-09-23T17:53:33.125Z,6.22
2022-09-23T17:56:04.251Z,6.50
2022-09-23T17:58:32.564Z,7.55
2022-09-23T18:00:59.806Z,5.65
2022-09-23T18:03:28.110Z,4.40
2022-09-23T18:05:55.252Z,5.13
2022-09-23T18:08:22.394Z,5.97
2022-09-23T18:10:49.479Z,7.25
2022-09-23T18:13:16.567Z,6.88
2022-09-23T18:15:43.654Z,7.70
2022-09-23T18:18:10.781Z,8.00
2022-09-23T18:20:37.853Z,14.70
2022-09-23T18:23:05.056Z,12.35
2022-09-23T18:25:40.421Z,7.63
2022-09-23T18:28:07.516Z,5.18
2022-09-23T18:30:34.550Z,8.25
2022-09-23T18:33:02.106Z,14.38
2022-09-23T18:35:29.195Z,12.32
2022-09-23T18:37:56.430Z,8.68
2022-09-23T18:40:23.580Z,7.43
2022-09-23T18:42:50.838Z,7.35
2022-09-23T18:45:17.939Z,7.82
2022-09-23T18:48:03.757Z,9.18
2022-09-23T18:50:40.212Z,10.45
2022-09-23T18:53:08.142Z,22.38
2022-09-23T18:55:36.238Z,19.00
2022-09-23T18:58:03.741Z,16.23
2022-09-23T19:00:30.932Z,17.65
2022-09-23T19:02:58.006Z,14.18
2022-09-23T19:05:25.169Z,10.30
2022-09-23T19:07:52.239Z,8.32
2022-09-23T19:10:19.657Z,10.05
2022-09-23T19:12:46.750Z,11.20
2022-09-23T19:15:14.172Z,10.88
2022-09-23T19:17:41.249Z,14.65
2022-09-23T19:20:09.477Z,10.93
2022-09-23T19:22:36.605Z,9.73
2022-09-23T19:25:03.764Z,11.13
2022-09-23T19:27:30.855Z,12.00
2022-09-23T19:29:57.950Z,14.75
2022-09-23T19:32:26.688Z,15.82
2022-09-23T19:34:53.767Z,16.27
2022-09-23T19:37:21.008Z,14.52
2022-09-23T19:39:48.223Z,14.07
2022-09-23T19:42:15.351Z,13.60
2022-09-23T19:44:42.461Z,15.88
2022-09-23T19:47:15.367Z,13.73
2022-09-23T19:49:43.194Z,13.77
2022-09-23T19:52:10.258Z,12.38
2022-09-23T19:54:37.627Z,11.77
2022-09-23T19:57:04.703Z,13.10
2022-09-23T19:59:31.831Z,14.10
2022-09-23T20:01:59.114Z,12.23
2022-09-23T20:04:26.217Z,11.98
2022-09-23T20:06:53.301Z,11.73
2022-09-23T20:09:20.563Z,12.85
2022-09-23T20:11:47.650Z,9.70
2022-09-23T20:14:15.197Z,10.82
2022-09-23T20:16:42.481Z,10.52
2022-09-23T20:19:10.036Z,12.40
2022-09-23T20:21:37.162Z,11.68
2022-09-23T20:24:06.415Z,11.02
2022-09-23T20:26:52.593Z,9.10
2022-09-23T20:29:19.677Z,8.35
2022-09-23T20:31:46.761Z,8.82
2022-09-23T20:34:13.850Z,8.32
2022-09-23T20:36:41.729Z,6.25
2022-09-23T20:39:10.033Z,7.03
2022-09-23T20:41:38.994Z,6.95
2022-09-23T20:44:07.556Z,7.43
2022-09-23T20:46:35.739Z,14.02
2022-09-23T20:49:03.578Z,15.00
2022-09-23T20:51:33.112Z,10.27
2022-09-23T20:54:00.451Z,9.57
2022-09-23T20:56:27.734Z,8.85
2022-09-23T20:58:54.854Z,7.35
2022-09-23T21:01:22.268Z,7.13
2022-09-23T21:03:51.286Z,7.22
2022-09-23T21:06:19.519Z,7.45
2022-09-23T21:08:46.983Z,7.10
2022-09-23T21:11:15.703Z,6.30
2022-09-23T21:13:47.096Z,6.15
2022-09-23T21:16:16.103Z,6.10
2022-09-23T21:18:43.684Z,6.55
2022-09-23T21:21:12.066Z,6.07
2022-09-23T21:23:39.548Z,6.57
2022-09-23T21:26:08.051Z,7.20
2022-09-23T21:28:36.660Z,7.00
2022-09-23T21:31:07.979Z,6.45
2022-09-23T21:33:38.093Z,7.22
2022-09-23T21:36:06.531Z,6.50
2022-09-23T21:38:37.271Z,6.10
2022-09-23T21:41:08.457Z,6.22
2022-09-23T21:43:37.312Z,5.70
2022-09-23T21:46:05.945Z,6.47
2022-09-23T21:48:34.291Z,5.80
2022-09-23T21:51:02.705Z,6.15
2022-09-23T21:53:30.917Z,5.70
2022-09-23T21:56:06.407Z,6.18
2022-09-23T21:58:34.499Z,6.10
2022-09-23T22:01:02.399Z,6.32
2022-09-23T22:03:29.735Z,6.05
2022-09-23T22:06:21.255Z,5.90
2022-09-23T22:08:49.888Z,6.05
2022-09-23T22:11:37.893Z,6.13
2022-09-23T22:14:07.154Z,7.50
2022-09-23T22:16:35.310Z,7.45
2022-09-23T22:19:06.413Z,8.82
2022-09-23T22:21:34.198Z,5.93
2022-09-23T22:24:02.213Z,6.43
2022-09-23T22:26:30.222Z,5.22
2022-09-23T22:29:15.888Z,4.88
2022-09-23T22:32:01.688Z,4.85
2022-09-23T22:34:48.567Z,4.80
2022-09-23T22:37:20.156Z,5.15
2022-09-23T22:39:47.539Z,5.57
2022-09-23T22:42:14.659Z,5.50
2022-09-23T22:44:41.763Z,5.65
2022-09-23T22:47:09.303Z,5.38
2022-09-23T22:49:36.384Z,5.90
2022-09-23T22:52:06.930Z,6.32
2022-09-23T22:54:34.541Z,6.00
2022-09-23T22:57:03.135Z,6.25
2022-09-23T22:59:30.386Z,6.25
2022-09-23T23:01:57.821Z,6.30
2022-09-23T23:04:25.253Z,6.15
2022-09-23T23:06:52.381Z,9.05
2022-09-23T23:09:19.552Z,18.75
2022-09-23T23:11:47.108Z,13.38
2022-09-23T23:14:15.278Z,19.33
2022-09-23T23:16:42.590Z,21.80
2022-09-23T23:19:13.097Z,25.02
2022-09-23T23:21:43.100Z,24.60
2022-09-23T23:24:20.797Z,21.63
2022-09-23T23:26:48.155Z,12.65
2022-09-23T23:29:16.365Z,10.25
2022-09-23T23:31:43.903Z,9.70
2022-09-23T23:34:16.154Z,9.60
2022-09-23T23:36:43.941Z,11.85
2022-09-23T23:39:11.298Z,14.63
2022-09-23T23:41:39.484Z,14.77
2022-09-23T23:44:07.782Z,14.02
2022-09-23T23:46:37.161Z,9.90
2022-09-23T23:49:04.763Z,10.35
2022-09-23T23:51:32.026Z,7.68
2022-09-23T23:53:59.610Z,7.05
2022-09-23T23:56:27.350Z,6.40
2022-09-23T23:58:58.216Z,5.32
